createdAt,value
2018-08-16T00:00:23.888Z,7.85
2018-08-16T00:02:51.565Z,7.73
2018-08-16T00:05:19.333Z,8.43
2018-08-16T00:07:47.035Z,8.83
2018-08-16T00:10:16.070Z,9.17
2018-08-16T00:12:44.836Z,10.30
2018-08-16T00:15:13.136Z,9.90
2018-08-16T00:17:41.002Z,9.70
2018-08-16T00:20:09.885Z,9.30
2018-08-16T00:22:37.536Z,9.17
2018-08-16T00:25:06.526Z,8.63
2018-08-16T00:27:34.144Z,7.97
2018-08-16T00:30:02.101Z,8.45
2018-08-16T00:32:29.951Z,8.85
2018-08-16T00:34:58.561Z,10.00
2018-08-16T00:37:26.449Z,6.40
2018-08-16T00:39:54.132Z,8.20
2018-08-16T00:42:21.811Z,7.42
2018-08-16T00:44:49.637Z,8.20
2018-08-16T00:47:17.215Z,5.93
2018-08-16T00:49:44.824Z,7.57
2018-08-16T00:52:12.460Z,7.10
2018-08-16T00:54:40.062Z,7.97
2018-08-16T00:57:07.706Z,6.80
2018-08-16T00:59:35.386Z,7.30
2018-08-16T01:02:03.026Z,7.75
2018-08-16T01:04:30.609Z,6.43
2018-08-16T01:06:58.255Z,6.75
2018-08-16T01:09:25.939Z,7.93
2018-08-16T01:11:53.689Z,7.77
2018-08-16T01:14:21.300Z,6.70
2018-08-16T01:16:48.897Z,6.97
2018-08-16T01:19:16.539Z,6.70
2018-08-16T01:21:44.189Z,7.00
2018-08-16T01:24:12.087Z,6.47
2018-08-16T01:26:39.709Z,8.10
2018-08-16T01:29:08.017Z,7.42
2018-08-16T01:31:35.687Z,7.90
2018-08-16T01:34:03.345Z,7.62
2018-08-16T01:36:30.983Z,6.78
2018-08-16T01:38:58.612Z,6.40
2018-08-16T01:41:26.218Z,7.23
2018-08-16T01:43:54.474Z,8.15
2018-08-16T01:46:22.060Z,7.00
2018-08-16T01:48:49.704Z,8.13
2018-08-16T01:51:17.356Z,7.60
2018-08-16T01:53:44.986Z,7.40
2018-08-16T01:56:12.623Z,7.20
2018-08-16T01:58:40.228Z,8.70
2018-08-16T02:01:07.833Z,8.50
2018-08-16T02:03:35.502Z,8.53
2018-08-16T02:06:03.186Z,8.03
2018-08-16T02:08:30.820Z,8.50
2018-08-16T02:10:58.486Z,8.90
2018-08-16T02:13:26.360Z,8.98
2018-08-16T02:15:53.944Z,8.05
2018-08-16T02:18:21.568Z,7.97
2018-08-16T02:20:49.148Z,9.30
2018-08-16T02:23:16.795Z,9.20
2018-08-16T02:25:44.357Z,8.35
2018-08-16T02:28:11.915Z,8.77
2018-08-16T02:30:39.577Z,8.23
2018-08-16T02:33:07.169Z,8.70
2018-08-16T02:35:34.759Z,8.73
2018-08-16T02:38:02.389Z,8.33
2018-08-16T02:40:29.937Z,8.98
2018-08-16T02:42:57.596Z,8.97
2018-08-16T02:45:25.143Z,7.43
2018-08-16T02:47:52.709Z,7.35
2018-08-16T02:50:20.326Z,7.90
2018-08-16T02:52:47.937Z,7.50
2018-08-16T02:55:15.572Z,7.40
2018-08-16T02:57:43.142Z,7.30
2018-08-16T03:00:10.791Z,7.37
2018-08-16T03:02:38.740Z,8.38
2018-08-16T03:05:07.153Z,6.35
2018-08-16T03:07:35.943Z,8.63
2018-08-16T03:10:05.322Z,7.70
2018-08-16T03:12:32.902Z,8.10
2018-08-16T03:15:00.464Z,8.90
2018-08-16T03:17:28.008Z,7.60
2018-08-16T03:19:55.649Z,7.73
2018-08-16T03:22:23.202Z,9.20
2018-08-16T03:24:50.763Z,8.40
2018-08-16T03:27:19.038Z,8.40
2018-08-16T03:29:46.700Z,8.40
2018-08-16T03:32:14.464Z,8.60
2018-08-16T03:34:42.071Z,8.17
2018-08-16T03:37:09.779Z,8.48
2018-08-16T03:39:37.325Z,8.17
2018-08-16T03:42:05.017Z,8.13
2018-08-16T03:44:34.885Z,8.00
2018-08-16T03:47:10.799Z,7.83
2018-08-16T03:49:41.205Z,8.10
2018-08-16T03:52:11.962Z,8.20
2018-08-16T03:54:39.592Z,8.07
2018-08-16T03:57:07.233Z,8.23
2018-08-16T03:59:34.885Z,7.93
2018-08-16T04:02:02.486Z,7.20
2018-08-16T04:04:30.130Z,7.33
2018-08-16T04:06:57.753Z,7.08
2018-08-16T04:09:25.339Z,8.10
2018-08-16T04:11:52.973Z,7.40
2018-08-16T04:14:20.605Z,7.28
2018-08-16T04:16:48.163Z,10.37
2018-08-16T04:19:15.745Z,8.50
2018-08-16T04:21:43.518Z,14.10
2018-08-16T04:24:11.140Z,12.20
2018-08-16T04:26:38.751Z,10.60
2018-08-16T04:29:06.558Z,6.87
2018-08-16T04:31:34.062Z,8.00
2018-08-16T04:34:01.693Z,8.83
2018-08-16T04:36:29.264Z,8.25
2018-08-16T04:38:57.443Z,8.67
2018-08-16T04:41:25.068Z,7.00
2018-08-16T04:43:53.738Z,7.60
2018-08-16T04:46:21.322Z,8.13
2018-08-16T04:48:48.975Z,9.85
2018-08-16T04:51:16.589Z,8.10
2018-08-16T04:53:44.754Z,7.90
2018-08-16T04:56:12.377Z,8.13
2018-08-16T04:58:39.987Z,7.33
2018-08-16T05:01:07.601Z,7.70
2018-08-16T05:03:35.839Z,7.97
2018-08-16T05:06:03.490Z,9.20
2018-08-16T05:08:31.133Z,8.00
2018-08-16T05:10:59.442Z,7.97
2018-08-16T05:13:27.101Z,8.63
2018-08-16T05:15:54.733Z,7.93
2018-08-16T05:18:22.369Z,8.47
2018-08-16T05:20:49.921Z,8.10
2018-08-16T05:23:17.523Z,7.62
2018-08-16T05:25:45.483Z,6.70
2018-08-16T05:28:13.017Z,9.07
2018-08-16T05:30:40.591Z,8.60
2018-08-16T05:33:08.210Z,8.03
2018-08-16T05:35:35.799Z,8.33
2018-08-16T05:38:03.402Z,7.45
2018-08-16T05:40:31.021Z,8.17
2018-08-16T05:42:58.576Z,9.00
2018-08-16T05:45:26.286Z,8.73
2018-08-16T05:47:53.858Z,8.60
2018-08-16T05:50:21.494Z,8.18
2018-08-16T05:52:49.441Z,8.33
2018-08-16T05:55:17.076Z,9.00
2018-08-16T05:57:45.392Z,7.73
2018-08-16T06:00:13.629Z,8.03
2018-08-16T06:02:41.290Z,7.93
2018-08-16T06:05:10.584Z,9.10
2018-08-16T06:07:38.336Z,10.03
2018-08-16T06:10:07.535Z,11.10
2018-08-16T06:12:35.148Z,8.50
2018-08-16T06:15:03.037Z,9.10
2018-08-16T06:17:30.710Z,8.60
2018-08-16T06:19:58.420Z,6.62
2018-08-16T06:22:26.077Z,6.63
2018-08-16T06:24:53.770Z,5.50
2018-08-16T06:27:21.501Z,7.93
2018-08-16T06:29:49.138Z,6.92
2018-08-16T06:32:16.934Z,7.50
2018-08-16T06:34:44.598Z,7.50
2018-08-16T06:37:12.264Z,6.90
2018-08-16T06:39:40.794Z,5.00
2018-08-16T06:42:08.438Z,6.30
2018-08-16T06:44:36.087Z,6.40
2018-08-16T06:47:03.829Z,5.30
2018-08-16T06:49:31.477Z,4.78
2018-08-16T06:51:59.103Z,5.40
2018-08-16T06:54:26.759Z,4.95
2018-08-16T06:56:54.445Z,4.70
2018-08-16T06:59:22.041Z,4.47
2018-08-16T07:01:49.721Z,4.73
2018-08-16T07:04:17.317Z,4.65
2018-08-16T07:06:44.941Z,3.40
2018-08-16T07:09:12.535Z,4.30
2018-08-16T07:11:40.431Z,3.83
2018-08-16T07:14:08.129Z,4.03
2018-08-16T07:16:35.793Z,3.55
2018-08-16T07:19:03.593Z,3.70
2018-08-16T07:21:31.223Z,3.70
2018-08-16T07:23:58.869Z,4.17
2018-08-16T07:26:26.501Z,3.60
2018-08-16T07:28:54.109Z,3.80
2018-08-16T07:31:21.741Z,4.12
2018-08-16T07:33:49.361Z,3.00
2018-08-16T07:36:17.275Z,2.83
2018-08-16T07:38:44.944Z,2.80
2018-08-16T07:41:12.575Z,3.50
2018-08-16T07:43:40.206Z,3.30
2018-08-16T07:46:07.834Z,3.10
2018-08-16T07:48:35.385Z,3.10
2018-08-16T07:51:03.089Z,3.70
2018-08-16T07:53:30.673Z,2.73
2018-08-16T07:55:58.333Z,2.70
2018-08-16T07:58:25.994Z,3.00
2018-08-16T08:00:53.616Z,3.50
2018-08-16T08:03:21.256Z,3.33
2018-08-16T08:05:48.887Z,3.40
2018-08-16T08:08:16.490Z,2.83
2018-08-16T08:10:44.084Z,3.12
2018-08-16T08:13:11.791Z,3.40
2018-08-16T08:15:39.410Z,3.10
2018-08-16T08:18:07.116Z,5.63
2018-08-16T08:20:34.748Z,3.80
2018-08-16T08:23:02.345Z,3.00
2018-08-16T08:25:30.019Z,2.73
2018-08-16T08:27:57.677Z,3.13
2018-08-16T08:30:26.297Z,3.00
2018-08-16T08:32:53.905Z,3.07
2018-08-16T08:35:21.740Z,2.65
2018-08-16T08:38:07.826Z,3.22
2018-08-16T08:40:35.458Z,2.27
2018-08-16T08:43:03.066Z,3.58
2018-08-16T08:45:30.675Z,3.10
2018-08-16T08:47:59.003Z,2.93
2018-08-16T08:50:26.881Z,2.92
2018-08-16T08:53:10.560Z,2.60
2018-08-16T08:55:55.870Z,3.00
2018-08-16T08:58:41.084Z,2.37
2018-08-16T09:01:08.651Z,2.90
2018-08-16T09:03:36.242Z,2.95
2018-08-16T09:06:03.941Z,2.80
2018-08-16T09:08:31.631Z,2.60
2018-08-16T09:12:16.759Z,2.60
2018-08-16T09:15:01.987Z,2.83
2018-08-16T09:17:29.669Z,2.60
2018-08-16T09:19:57.353Z,2.35
2018-08-16T09:22:25.009Z,2.90
2018-08-16T09:24:52.631Z,2.70
2018-08-16T09:27:20.191Z,3.10
2018-08-16T09:30:12.518Z,2.65
2018-08-16T09:32:57.905Z,3.60
2018-08-16T09:35:26.588Z,3.10
2018-08-16T09:37:54.247Z,3.00
2018-08-16T09:40:21.877Z,2.87
2018-08-16T09:42:49.471Z,2.40
2018-08-16T09:45:34.691Z,2.17
2018-08-16T09:48:19.717Z,2.33
2018-08-16T09:50:47.354Z,3.10
2018-08-16T09:53:15.058Z,2.55
2018-08-16T09:55:42.730Z,2.30
2018-08-16T09:58:10.409Z,2.73
2018-08-16T10:01:13.240Z,2.33
2018-08-16T10:03:40.863Z,2.30
2018-08-16T10:06:08.564Z,2.12
2018-08-16T10:08:36.211Z,2.52
2018-08-16T10:11:03.868Z,2.67
2018-08-16T10:13:31.512Z,2.70
2018-08-16T10:15:59.186Z,2.75
2018-08-16T10:18:26.796Z,1.90
2018-08-16T10:20:54.467Z,1.63
2018-08-16T10:23:22.098Z,2.30
2018-08-16T10:25:49.698Z,2.42
2018-08-16T10:28:17.307Z,2.30
2018-08-16T10:30:44.916Z,2.27
2018-08-16T10:33:13.370Z,2.50
2018-08-16T10:35:40.952Z,1.90
2018-08-16T10:38:09.412Z,2.35
2018-08-16T10:40:37.121Z,2.23
2018-08-16T10:43:04.797Z,1.87
2018-08-16T10:45:32.367Z,2.58
2018-08-16T10:47:59.963Z,1.90
2018-08-16T10:50:28.369Z,2.77
2018-08-16T10:52:56.042Z,1.83
2018-08-16T10:55:23.633Z,2.47
2018-08-16T10:57:51.491Z,1.90
2018-08-16T11:00:19.113Z,1.97
2018-08-16T11:02:46.736Z,2.45
2018-08-16T11:05:14.373Z,2.33
2018-08-16T11:07:42.058Z,1.93
2018-08-16T11:10:09.724Z,2.67
2018-08-16T11:12:37.374Z,2.60
2018-08-16T11:15:05.568Z,2.80
2018-08-16T11:17:33.188Z,2.10
2018-08-16T11:20:00.882Z,2.15
2018-08-16T11:22:29.416Z,1.95
2018-08-16T11:24:57.897Z,1.93
2018-08-16T11:27:25.508Z,2.33
2018-08-16T11:29:53.181Z,2.25
2018-08-16T11:32:20.868Z,2.10
2018-08-16T11:34:48.541Z,2.50
2018-08-16T11:37:16.994Z,1.50
2018-08-16T11:39:44.906Z,2.35
2018-08-16T11:42:13.499Z,2.62
2018-08-16T11:44:41.216Z,1.70
2018-08-16T11:47:08.919Z,1.80
2018-08-16T11:49:36.483Z,2.15
2018-08-16T11:52:04.086Z,1.27
2018-08-16T11:54:31.685Z,2.00
2018-08-16T11:56:59.224Z,1.65
2018-08-16T11:59:26.950Z,2.20
2018-08-16T12:01:54.561Z,1.53
2018-08-16T12:04:22.150Z,1.20
2018-08-16T12:06:49.922Z,1.70
2018-08-16T12:09:17.504Z,1.30
2018-08-16T12:11:45.132Z,1.10
2018-08-16T12:14:12.709Z,1.40
2018-08-16T12:16:40.490Z,1.20
2018-08-16T12:19:08.151Z,0.93
2018-08-16T12:21:35.848Z,1.15
2018-08-16T12:24:03.417Z,1.00
2018-08-16T12:26:31.071Z,1.23
2018-08-16T12:28:58.661Z,1.15
2018-08-16T12:31:26.273Z,1.10
2018-08-16T12:33:54.013Z,1.00
2018-08-16T12:36:21.749Z,1.50
2018-08-16T12:38:49.332Z,1.47
2018-08-16T12:41:17.277Z,1.20
2018-08-16T12:43:44.901Z,1.27
2018-08-16T12:46:12.531Z,1.10
2018-08-16T12:48:40.133Z,1.20
2018-08-16T12:51:08.045Z,1.43
2018-08-16T12:53:35.899Z,1.00
2018-08-16T12:56:03.502Z,1.10
2018-08-16T12:58:31.766Z,2.73
2018-08-16T13:00:59.756Z,1.30
2018-08-16T13:03:27.426Z,1.10
2018-08-16T13:05:55.036Z,1.00
2018-08-16T13:08:22.662Z,1.00
2018-08-16T13:10:50.266Z,0.95
2018-08-16T13:13:17.858Z,1.10
2018-08-16T13:15:45.494Z,1.07
2018-08-16T13:18:13.114Z,1.17
2018-08-16T13:20:40.764Z,1.00
2018-08-16T13:23:08.467Z,0.97
2018-08-16T13:25:36.093Z,1.17
2018-08-16T13:28:03.778Z,0.90
2018-08-16T13:30:31.425Z,1.30
2018-08-16T13:32:59.034Z,1.13
2018-08-16T13:35:26.710Z,1.15
2018-08-16T13:37:54.412Z,1.30
2018-08-16T13:40:22.097Z,0.98
2018-08-16T13:42:49.762Z,1.40
2018-08-16T13:45:17.377Z,0.90
2018-08-16T13:47:45.655Z,1.00
2018-08-16T13:50:13.265Z,1.43
2018-08-16T13:52:41.338Z,0.90
2018-08-16T13:55:09.078Z,0.90
2018-08-16T13:57:36.608Z,0.93
2018-08-16T14:00:05.810Z,1.00
2018-08-16T14:02:33.469Z,1.13
2018-08-16T14:05:01.115Z,0.85
2018-08-16T14:07:28.712Z,0.90
2018-08-16T14:09:56.397Z,1.00
2018-08-16T14:12:24.029Z,1.10
2018-08-16T14:14:51.663Z,1.40
2018-08-16T14:17:19.349Z,1.00
2018-08-16T14:19:47.260Z,1.10
2018-08-16T14:22:14.970Z,1.30
2018-08-16T14:24:42.614Z,2.90
2018-08-16T14:27:10.308Z,1.25
2018-08-16T14:29:37.958Z,1.10
2018-08-16T14:32:05.612Z,0.98
2018-08-16T14:34:33.138Z,1.20
2018-08-16T14:37:00.786Z,1.17
2018-08-16T14:39:28.376Z,0.90
2018-08-16T14:41:56.008Z,0.90
2018-08-16T14:44:23.631Z,0.90
2018-08-16T14:46:51.318Z,1.20
2018-08-16T14:49:19.746Z,0.83
2018-08-16T14:51:47.373Z,1.00
2018-08-16T14:54:14.980Z,1.40
2018-08-16T14:56:42.884Z,1.07
2018-08-16T14:59:10.548Z,1.00
2018-08-16T15:01:38.187Z,0.93
2018-08-16T15:04:05.972Z,0.77
2018-08-16T15:06:33.609Z,1.83
2018-08-16T15:09:01.414Z,5.25
2018-08-16T15:11:29.013Z,2.83
2018-08-16T15:13:56.608Z,1.17
2018-08-16T15:16:24.195Z,1.17
2018-08-16T15:18:52.030Z,0.90
2018-08-16T15:21:19.686Z,1.13
2018-08-16T15:23:48.254Z,1.10
2018-08-16T15:26:15.926Z,1.33
2018-08-16T15:28:43.527Z,1.10
2018-08-16T15:31:11.151Z,1.13
2018-08-16T15:33:38.782Z,0.97
2018-08-16T15:36:06.653Z,1.13
2018-08-16T15:38:34.386Z,1.20
2018-08-16T15:41:02.068Z,0.70
2018-08-16T15:43:31.861Z,1.00
2018-08-16T15:45:59.491Z,1.10
2018-08-16T15:48:27.072Z,1.15
2018-08-16T15:50:54.740Z,1.20
2018-08-16T15:53:22.350Z,0.97
2018-08-16T15:55:50.024Z,1.17
2018-08-16T15:58:17.666Z,1.55
2018-08-16T16:00:45.332Z,1.30
2018-08-16T16:03:12.953Z,1.00
2018-08-16T16:05:40.612Z,1.03
2018-08-16T16:08:08.360Z,1.27
2018-08-16T16:10:35.995Z,0.90
2018-08-16T16:13:03.681Z,1.35
2018-08-16T16:15:31.345Z,0.98
2018-08-16T16:17:59.630Z,1.10
2018-08-16T16:20:27.366Z,0.90
2018-08-16T16:22:55.093Z,1.30
2018-08-16T16:25:22.852Z,1.30
2018-08-16T16:27:50.521Z,0.93
2018-08-16T16:30:18.162Z,1.13
2018-08-16T16:32:45.947Z,1.30
2018-08-16T16:35:13.717Z,1.42
2018-08-16T16:37:41.383Z,1.45
2018-08-16T16:40:10.057Z,1.00
2018-08-16T16:42:38.479Z,1.57
2018-08-16T16:45:06.429Z,2.08
2018-08-16T16:47:34.132Z,1.90
2018-08-16T16:50:01.840Z,1.30
2018-08-16T16:52:29.498Z,1.20
2018-08-16T16:54:57.260Z,1.50
2018-08-16T16:57:24.954Z,1.60
2018-08-16T16:59:52.649Z,1.40
2018-08-16T17:02:20.319Z,1.75
2018-08-16T17:04:47.891Z,1.70
2018-08-16T17:07:15.546Z,1.50
2018-08-16T17:09:43.229Z,1.12
2018-08-16T17:12:10.838Z,2.00
2018-08-16T17:14:38.466Z,2.30
2018-08-16T17:17:06.460Z,2.67
2018-08-16T17:19:34.089Z,1.95
2018-08-16T17:22:01.750Z,3.43
2018-08-16T17:24:29.670Z,2.80
2018-08-16T17:26:57.352Z,2.20
2018-08-16T17:29:25.062Z,1.90
2018-08-16T17:31:52.688Z,1.90
2018-08-16T17:34:20.576Z,2.23
2018-08-16T17:36:48.306Z,2.00
2018-08-16T17:39:15.942Z,2.40
2018-08-16T17:41:43.626Z,1.53
2018-08-16T17:44:11.218Z,1.95
2018-08-16T17:46:38.838Z,2.33
2018-08-16T17:49:07.554Z,2.70
2018-08-16T17:51:35.248Z,2.23
2018-08-16T17:54:02.954Z,2.42
2018-08-16T17:56:30.592Z,2.37
2018-08-16T17:58:58.305Z,2.53
2018-08-16T18:01:25.940Z,2.10
2018-08-16T18:03:53.526Z,2.75
2018-08-16T18:06:21.121Z,2.40
2018-08-16T18:08:48.727Z,3.67
2018-08-16T18:11:16.391Z,4.03
2018-08-16T18:13:44.031Z,2.50
2018-08-16T18:16:11.665Z,3.47
2018-08-16T18:18:39.307Z,2.92
2018-08-16T18:21:07.129Z,1.92
2018-08-16T18:23:34.765Z,2.43
2018-08-16T18:26:02.499Z,2.40
2018-08-16T18:28:30.115Z,2.70
2018-08-16T18:30:57.749Z,1.98
2018-08-16T18:33:25.347Z,2.17
2018-08-16T18:35:53.000Z,2.00
2018-08-16T18:38:20.685Z,2.13
2018-08-16T18:40:49.124Z,3.52
2018-08-16T18:43:16.847Z,2.00
2018-08-16T18:45:44.498Z,2.17
2018-08-16T18:48:13.075Z,1.98
2018-08-16T18:50:40.889Z,2.23
2018-08-16T18:53:08.682Z,2.57
2018-08-16T18:55:37.047Z,2.37
2018-08-16T18:58:05.966Z,2.10
2018-08-16T19:00:34.052Z,2.50
2018-08-16T19:03:01.696Z,2.97
2018-08-16T19:05:29.588Z,13.08
2018-08-16T19:07:57.218Z,8.60
2018-08-16T19:10:24.928Z,2.80
2018-08-16T19:12:52.580Z,4.50
2018-08-16T19:15:20.250Z,2.03
2018-08-16T19:17:47.986Z,11.68
2018-08-16T19:20:15.744Z,2.92
2018-08-16T19:22:43.336Z,4.00
2018-08-16T19:25:10.985Z,4.53
2018-08-16T19:27:38.876Z,3.30
2018-08-16T19:30:06.867Z,2.63
2018-08-16T19:32:34.748Z,2.77
2018-08-16T19:35:02.591Z,6.23
2018-08-16T19:37:30.312Z,5.27
2018-08-16T19:39:58.426Z,7.45
2018-08-16T19:42:26.293Z,5.93
2018-08-16T19:44:53.991Z,3.90
2018-08-16T19:47:21.596Z,9.15
2018-08-16T19:49:49.323Z,10.53
2018-08-16T19:52:17.103Z,8.37
2018-08-16T19:54:44.904Z,5.73
2018-08-16T19:57:12.640Z,3.53
2018-08-16T19:59:40.315Z,4.63
2018-08-16T20:02:08.095Z,7.05
2018-08-16T20:04:36.034Z,4.60
2018-08-16T20:07:03.939Z,8.25
2018-08-16T20:09:31.650Z,7.70
2018-08-16T20:11:59.442Z,13.17
2018-08-16T20:14:27.071Z,5.37
2018-08-16T20:16:54.670Z,9.70
2018-08-16T20:19:22.299Z,3.20
2018-08-16T20:21:50.088Z,3.97
2018-08-16T20:24:17.758Z,5.10
2018-08-16T20:26:45.348Z,3.67
2018-08-16T20:29:13.012Z,4.17
2018-08-16T20:31:40.602Z,3.17
2018-08-16T20:34:08.240Z,5.45
2018-08-16T20:36:36.283Z,3.93
2018-08-16T20:39:06.773Z,3.52
2018-08-16T20:41:34.732Z,4.40
2018-08-16T20:44:02.757Z,3.87
2018-08-16T20:46:30.496Z,3.13
2018-08-16T20:48:58.198Z,3.20
2018-08-16T20:51:30.606Z,2.35
2018-08-16T20:53:58.300Z,3.57
2018-08-16T20:56:25.942Z,2.72
2018-08-16T20:58:53.546Z,3.12
2018-08-16T21:01:21.263Z,4.20
2018-08-16T21:03:49.198Z,3.83
2018-08-16T21:06:16.901Z,3.70
2018-08-16T21:08:44.586Z,4.47
2018-08-16T21:11:12.238Z,4.15
2018-08-16T21:13:39.933Z,4.70
2018-08-16T21:16:07.688Z,5.40
2018-08-16T21:18:35.562Z,4.90
2018-08-16T21:21:03.252Z,4.30
2018-08-16T21:23:30.961Z,6.40
2018-08-16T21:25:58.684Z,3.83
2018-08-16T21:28:26.369Z,4.70
2018-08-16T21:30:54.049Z,4.50
2018-08-16T21:33:21.614Z,4.90
2018-08-16T21:35:49.325Z,4.87
2018-08-16T21:38:16.945Z,4.60
2018-08-16T21:40:44.671Z,4.60
2018-08-16T21:43:12.313Z,6.00
2018-08-16T21:45:39.939Z,4.97
2018-08-16T21:48:07.583Z,4.28
2018-08-16T21:50:35.287Z,5.30
2018-08-16T21:53:03.081Z,4.83
2018-08-16T21:55:30.723Z,5.47
2018-08-16T21:57:58.293Z,4.80
2018-08-16T22:01:02.186Z,5.90
2018-08-16T22:03:30.219Z,5.00
2018-08-16T22:06:09.086Z,4.27
2018-08-16T22:08:42.781Z,6.13
2018-08-16T22:11:10.678Z,6.23
2018-08-16T22:13:38.584Z,6.03
2018-08-16T22:16:06.484Z,4.93
2018-08-16T22:18:34.186Z,5.40
2018-08-16T22:21:01.926Z,6.33
2018-08-16T22:23:29.636Z,6.25
2018-08-16T22:25:57.266Z,5.83
2018-08-16T22:28:25.136Z,4.20
2018-08-16T22:30:53.336Z,5.00
2018-08-16T22:33:21.022Z,4.83
2018-08-16T22:35:48.701Z,4.70
2018-08-16T22:38:16.282Z,4.43
2018-08-16T22:40:44.011Z,4.72
2018-08-16T22:43:11.709Z,3.97
2018-08-16T22:45:39.409Z,4.13
2018-08-16T22:48:07.529Z,4.30
2018-08-16T22:50:35.305Z,4.90
2018-08-16T22:53:03.357Z,3.63
2018-08-16T22:55:31.103Z,3.87
2018-08-16T22:57:58.769Z,4.13
2018-08-16T23:00:26.521Z,4.87
2018-08-16T23:02:54.265Z,3.73
2018-08-16T23:05:22.097Z,3.50
2018-08-16T23:07:49.765Z,4.00
2018-08-16T23:10:17.441Z,3.87
2018-08-16T23:12:45.109Z,3.92
2018-08-16T23:15:12.730Z,3.80
2018-08-16T23:17:40.383Z,3.00
2018-08-16T23:20:08.652Z,3.95
2018-08-16T23:22:36.332Z,3.50
2018-08-16T23:25:04.466Z,3.10
2018-08-16T23:27:32.260Z,3.43
2018-08-16T23:30:00.009Z,2.97
2018-08-16T23:32:27.640Z,3.47
2018-08-16T23:34:55.436Z,2.95
2018-08-16T23:37:23.128Z,3.37
2018-08-16T23:39:50.770Z,3.80
2018-08-16T23:42:18.440Z,2.70
2018-08-16T23:44:46.517Z,4.10
2018-08-16T23:47:14.355Z,3.30
2018-08-16T23:49:42.067Z,2.90
2018-08-16T23:52:09.806Z,2.87
2018-08-16T23:54:37.426Z,3.17
2018-08-16T23:57:05.150Z,3.05
2018-08-16T23:59:32.837Z,2.75
